Besse sur Issole             Mai 2001                                                                                                                                                                                                                                                                                                                                                                                                                                                                                  
  Températures (°C) Humidité Vent  (km/h) Précipitations Pression (hPa) Divers  
Date Max Min Moy de 288 relevés Moy (tx+tn)/2 Index chaleur moyen Index chaleur maxi Froid du au vent moy Froid du au vent moy mini  Tx-Tn Relative maxi Relative mini Relative moy de 288 relevés Relative moy (hx+hn)/2 Point de rosée maxi Point de rosée mini Point de rosée moyen Vent  moy maxi (10mn) Vent  moyen (24h) Direction dominante Rafales (km/h) maxi Direction rafale maxi Rafales moy Total Du jour (mm) Durée (h) Intensité maxi (mm/h) Maxi Mini Moy de 288 relevés Moy (px+pn)/2 Variation Epaisseur neige Remarques diverses    
01/05/01 13,2 9,4 11,10 11,30 11,16 13,1 11,07 8,6 3,8 98% 84% 95,0% 91,0% 12,0 8,6 10,38 11,3 3,33 ENE 25,7 SE 6,88 35,0 14,50 8,4 1018,7 1012,9 1016,5 1015,8 5,8   Ciel 8/8, pluies modérées continues parfois fortes  
02/05/01 13,5 10,2 12,23 11,85 12,27 13,5 11,67 7,9 3,3 98% 95% 97,1% 96,5% 13,2 9,9 11,83 14,5 5,34 ENE 35,4 ENE 10,57 60,4 16,17 31,2 1017,0 1010,6 1013,9 1013,8 6,4   Ciel 8/8, pluies modérées continues parfois très fortes  
03/05/01 19,7 7,2 12,72 13,45 12,90 19,3 12,19 4,4 12,5 98% 48% 76,2% 73,0% 10,9 6,4 8,33 17,7 6,79 SW 30,6 SW 12,99 0,2 0,17 1,2 1011,1 1007,6 1009,2 1009,4 3,5   Ciel entre 0/8 et 4/8  
04/05/01 13,8 9,5 10,68 11,65 10,74 13,6 10,38 7,3 4,3 97% 80% 89,5% 88,5% 11,8 7,3 9,06 12,9 4,44 S 24,1 WSW 8,58 8,1 4,17 6,0 1008,5 1003,3 1005,2 1005,9 5,2   Ciel 8/8, pluie modérée le matin  
05/05/01 18,6 8,2 12,79 13,40 12,94 18,2 12,33 8,3 10,4 98% 59% 81,2% 78,5% 12,4 7,8 9,57 17,7 5,74 SW 27,4 SW 10,68 0,0 0,00 0,0 1006,2 1003,1 1005,0 1004,7 3,1   Ciel entre 8/8 et 4/8  
06/05/01 20,2 9,8 13,54 15,00 13,65 19,9 12,37 3,8 10,4 89% 56% 78,4% 72,5% 12,8 7,5 9,84 19,3 7,88 W 33,8 WNW 14,95 0,6 0,42 2,4 1009,6 1004,7 1006,6 1007,2 4,9   Ciel entre 3/8 et 8/8, petites averses de pluie faible l'AM et le soir  
07/05/01 21,1 10,0 14,14 15,55 14,29 20,6 13,58 7,8 11,1 94% 58% 82,4% 76,0% 14,7 8,4 11,18 16,1 6,08 W 27,4 SW 11,20 4,8 0,42 12,0 1015,3 1009,7 1012,3 1012,5 5,6   Ciel de 4/8 à 8/8 l'AM, une forte averse de pluie vers 14h30Z  
08/05/01 23,6 10,1 15,87 16,85 15,94 23,3 15,71 10,1 13,5 97% 49% 76,2% 73,0% 14,7 9,1 11,35 17,7 4,69 SW 32,2 SW 9,08 0,1 0,08 1,2 1017,6 1015,1 1016,4 1016,4 2,5   Ciel entre 1/8 et 6/8, quelques gouttes vers 12h40, Cb entre l'W , N et l'E  
09/05/01 21,9 7,9 14,53 14,90 14,63 21,1 14,05 7,9 14,0 98% 53% 78,3% 75,5% 14,2 7,2 10,60 16,1 5,55 ENE 27,4 NE 10,69 0,1 0,08 1,2 1018,6 1015,1 1016,8 1016,9 3,5   Ciel entre 6/8 et 0/8  
10/05/01 21,5 10,4 15,73 15,95 15,82 21,1 15,25 10,4 11,1 95% 57% 77,7% 76,0% 14,5 9,3 11,64 19,3 6,19 NNE 38,6 NE 12,30 0,0 0,00 0,0 1015,3 1012,3 1013,7 1013,8 3,0   Ciel entre 7/8 et8/8, quelques gouttes dans l'AM, vent fort de NE  
11/05/01 21,9 10,3 14,31 16,10 14,40 21,7 13,82 7,1 11,6 96% 56% 87,0% 76,0% 15,0 9,8 12,08 20,9 5,71 WSW 38,6 NW 10,23 14,1 3,92 21,6 1016,3 1012,4 1014,3 1014,4 3,9   Ciel entre 8/8 et 5/8, une averse de 4 mm le matin, orage violent de 17h40Z à 19h00Z avec vent fort de NW, le plus gros probablement entre Cabasse, Camps la source, le Val  
12/05/01 25,4 7,8 16,46 16,60 16,25 24,4 16,27 7,8 17,6 99% 30% 68,8% 64,5% 15,5 6,5 9,70 16,1 5,10 SSW 30,6 SSW 9,74 0,2 0,17 1,2 1015,5 1012,5 1014,2 1014,0 3,0   Ciel entre 0/8 et 1/8  
13/05/01 23,9 7,9 16,38 15,90 16,33 23,9 15,75 7,9 16,0 91% 39% 67,2% 65,0% 13,2 6,2 9,81 20,9 7,63 SW 32,2 SW 13,10 0,0 0,00 0,0 1014,3 1013,2 1013,8 1013,8 1,1   Ciel entre 0/8 et 1/8  
14/05/01 22,6 8,5 15,74 15,55 15,69 22,1 15,27 8,6 14,1 96% 45% 73,1% 70,5% 13,8 7,7 10,62 14,5 6,98 SW 29,0 SSW 13,37 0,0 0,00 0,0 1013,6 1010,6 1012,3 1012,1 3,0   Ciel entre 6/8 et 3/8  
15/05/01 22,9 11,8 16,68 17,35 16,80 22,8 16,20 10,9 11,1 96% 54% 75,0% 75,0% 14,8 9,2 12,13 16,1 6,82 ENE 30,6 SW 13,79 0,0 0,00 0,0 1014,6 1008,8 1011,3 1011,7 5,8   Ciel de 6/8 à 1/8 l'AM  
16/05/01 22,4 10,3 16,00 16,35 16,18 22,2 15,10 10,3 12,1 98% 60% 80,5% 79,0% 15,2 9,3 12,60 20,9 7,97 ENE 32,2 ENE 14,88 0,0 0,00 0,0 1016,8 1014,2 1015,8 1015,5 2,6   Ciel entre 3/8 et 6/8  
17/05/01 24,8 10,2 16,47 17,50 16,63 24,6 16,14 10,2 14,6 98% 58% 81,6% 78,0% 16,4 9,3 13,20 16,1 5,81 ENE 29,0 SW 11,04 0,1 0,08 1,2 1016,5 1013,0 1014,8 1014,8 3,5   Ciel entre 3/8 et 8/8, quelques gouttes dans l'AM  
18/05/01 26,1 12,2 18,02 19,15 17,93 24,9 15,28 8,1 13,8 93% 34% 60,5% 63,5% 14,1 3,3 9,63 25,7 15,64 WNW 46,7 WNW 29,49 0,0 0,00 0,0 1014,0 1010,9 1012,8 1012,5 3,1   Ciel entre 7/8 et 1/8, vent de WNW fort  
19/05/01 27,6 10,8 17,80 19,15 17,54 26,7 17,05 7,3 16,8 77% 26% 51,6% 51,5% 12,1 3,6 7,26 16,1 7,91 SW 30,6 W 14,23 0,0 0,00 0,0 1017,3 1013,3 1015,3 1015,3 4,0   Ciel entre 0/8 et 1/8  
20/05/01 27,6 10,8 17,09 19,20 16,91 26,1 16,86 9,6 16,8 87% 24% 62,2% 55,5% 12,3 3,8 9,04 16,1 5,54 N 33,8 E 10,89 0,5 0,42 1,2 1016,7 1013,2 1015,4 1015,0 3,5   Ciel entre 3/8 et 8/8, petit orage à 16h20 venant du SSE, petite averse de pluie sablonneuse, autres orages dans la nuit avec pluie forte,  
21/05/01 19,5 12,5 15,04 16,00 15,13 19,5 14,87 9,7 7,0 97% 67% 88,4% 82,0% 15,6 10,9 13,17 14,5 4,66 N 30,6 NW 9,66 5,2 1,83 15,6 1014,8 1013,3 1014,0 1014,1 1,5   Ciel entre 7/8 et 8/8, courtes averses de pluie modérée dans la journée, petit orage le matin  
22/05/01 24,2 11,6 16,70 17,90 16,86 23,9 16,07 10,7 12,6 98% 57% 79,9% 77,5% 16,2 10,9 13,08 17,7 7,39 W 30,6 W 13,95 0,2 0,17 1,2 1015,9 1012,8 1014,0 1014,4 3,1   Ciel de 8/8 le matin à 1/8 le soir  
23/05/01 24,8 10,8 17,14 17,80 17,31 25,1 17,00 9,6 14,0 97% 60% 79,5% 78,5% 17,7 9,9 13,48 16,1 4,64 SSW 32,2 W 9,21 0,0 0,00 0,0 1020,6 1015,4 1018,3 1018,0 5,2   Ciel de 7/8 à 7/8, plusieurs orages au loin, un petit au dessus de la station  sans pluie à 15h45Z  
24/05/01 24,3 14,1 17,43 19,20 17,57 23,9 17,06 10,6 10,2 97% 51% 81,1% 74,0% 16,6 12,0 13,97 14,5 6,38 SW 29,0 WNW 11,45 4,0 1,08 14,4 1020,3 1015,5 1018,4 1017,9 4,8   Ciel entre 8/8 le matin et 3/8 dans l'AM, petit orage vers 5hTU avec une averse de pluie forte, orages au loin l'après midi (du NE à L'W de la station)  
25/05/01 27,8 13,2 19,15 20,50 19,36 27,7 18,99 11,7 14,6 96% 43% 73,6% 69,5% 17,1 11,2 13,94 16,1 5,80 SW 27,4 SW 11,14 3,2 1,17 4,8 1016,1 1012,4 1014,2 1014,3 3,7   Ciel entre 0/8 et8/8, tonnerre à partir de 13h30Z, une petite averse de pluie modérée avec un orage très actif au niveau électrique dans la soirée  
26/05/01 28,2 12,3 19,23 20,25 19,40